sensor_id;sensor_type;location;lat;lon;timestamp;P1;durP1;ratioP1;P2;durP2;ratioP2
8993;SDS011;4532;50.886;4.700;2023-10-08T00:01:39;6.82;;;2.90;;
8993;SDS011;4532;50.886;4.700;2023-10-08T00:04:09;6.15;;;3.30;;
8993;SDS011;4532;50.886;4.700;2023-10-08T00:06:48;5.00;;;2.90;;
8993;SDS011;4532;50.886;4.700;2023-10-08T00:09:16;7.07;;;3.50;;
8993;SDS011;4532;50.886;4.700;2023-10-08T00:11:49;6.97;;;3.35;;
8993;SDS011;4532;50.886;4.700;2023-10-08T00:14:20;5.47;;;3.20;;
8993;SDS011;4532;50.886;4.700;2023-10-08T00:16:48;7.82;;;3.20;;
8993;SDS011;4532;50.886;4.700;2023-10-08T00:19:16;6.03;;;2.90;;
8993;SDS011;4532;50.886;4.700;2023-10-08T00:21:46;5.78;;;3.08;;
8993;SDS011;4532;50.886;4.700;2023-10-08T00:24:17;9.18;;;3.08;;
8993;SDS011;4532;50.886;4.700;2023-10-08T00:26:53;5.78;;;2.63;;
8993;SDS011;4532;50.886;4.700;2023-10-08T00:29:21;6.80;;;3.38;;
8993;SDS011;4532;50.886;4.700;2023-10-08T00:31:54;5.47;;;3.05;;
8993;SDS011;4532;50.886;4.700;2023-10-08T00:34:26;8.60;;;3.47;;
8993;SDS011;4532;50.886;4.700;2023-10-08T00:36:54;6.22;;;3.33;;
8993;SDS011;4532;50.886;4.700;2023-10-08T00:39:21;8.57;;;3.17;;
8993;SDS011;4532;50.886;4.700;2023-10-08T00:41:52;10.23;;;3.22;;
8993;SDS011;4532;50.886;4.700;2023-10-08T00:44:26;5.88;;;3.40;;
8993;SDS011;4532;50.886;4.700;2023-10-08T00:46:59;5.30;;;3.08;;
8993;SDS011;4532;50.886;4.700;2023-10-08T00:49:31;5.55;;;3.38;;
8993;SDS011;4532;50.886;4.700;2023-10-08T00:52:13;6.80;;;3.00;;
8993;SDS011;4532;50.886;4.700;2023-10-08T00:54:42;5.88;;;3.40;;
8993;SDS011;4532;50.886;4.700;2023-10-08T00:57:25;6.18;;;3.05;;
8993;SDS011;4532;50.886;4.700;2023-10-08T00:59:55;7.10;;;3.42;;
8993;SDS011;4532;50.886;4.700;2023-10-08T01:02:27;5.63;;;3.33;;
8993;SDS011;4532;50.886;4.700;2023-10-08T01:05:13;5.13;;;3.20;;
8993;SDS011;4532;50.886;4.700;2023-10-08T01:07:54;7.82;;;3.10;;
8993;SDS011;4532;50.886;4.700;2023-10-08T01:10:26;5.53;;;3.20;;
8993;SDS011;4532;50.886;4.700;2023-10-08T01:12:56;7.20;;;3.33;;
8993;SDS011;4532;50.886;4.700;2023-10-08T01:15:24;6.85;;;3.47;;
8993;SDS011;4532;50.886;4.700;2023-10-08T01:17:57;5.50;;;3.00;;
8993;SDS011;4532;50.886;4.700;2023-10-08T01:20:27;5.35;;;3.50;;
8993;SDS011;4532;50.886;4.700;2023-10-08T01:23:10;6.43;;;3.33;;
8993;SDS011;4532;50.886;4.700;2023-10-08T01:25:43;5.15;;;2.88;;
8993;SDS011;4532;50.886;4.700;2023-10-08T01:28:18;5.65;;;3.53;;
8993;SDS011;4532;50.886;4.700;2023-10-08T01:30:59;6.68;;;3.10;;
8993;SDS011;4532;50.886;4.700;2023-10-08T01:33:31;5.72;;;3.03;;
8993;SDS011;4532;50.886;4.700;2023-10-08T01:36:06;5.97;;;3.58;;
8993;SDS011;4532;50.886;4.700;2023-10-08T01:38:39;7.28;;;3.42;;
8993;SDS011;4532;50.886;4.700;2023-10-08T01:41:09;6.97;;;3.53;;
8993;SDS011;4532;50.886;4.700;2023-10-08T01:43:46;5.47;;;3.03;;
8993;SDS011;4532;50.886;4.700;2023-10-08T01:46:14;5.60;;;3.55;;
8993;SDS011;4532;50.886;4.700;2023-10-08T01:48:42;8.13;;;3.53;;
8993;SDS011;4532;50.886;4.700;2023-10-08T01:51:11;6.43;;;3.53;;
8993;SDS011;4532;50.886;4.700;2023-10-08T01:53:55;5.82;;;3.20;;
8993;SDS011;4532;50.886;4.700;2023-10-08T01:56:24;6.30;;;3.60;;
8993;SDS011;4532;50.886;4.700;2023-10-08T01:58:52;7.28;;;3.42;;
8993;SDS011;4532;50.886;4.700;2023-10-08T02:01:24;6.32;;;3.00;;
8993;SDS011;4532;50.886;4.700;2023-10-08T02:03:51;6.78;;;3.67;;
8993;SDS011;4532;50.886;4.700;2023-10-08T02:06:21;6.15;;;3.65;;
8993;SDS011;4532;50.886;4.700;2023-10-08T02:08:50;6.47;;;3.42;;
8993;SDS011;4532;50.886;4.700;2023-10-08T02:11:20;6.15;;;3.25;;
8993;SDS011;4532;50.886;4.700;2023-10-08T02:13:52;5.72;;;3.38;;
8993;SDS011;4532;50.886;4.700;2023-10-08T02:16:22;4.88;;;3.08;;
8993;SDS011;4532;50.886;4.700;2023-10-08T02:18:54;6.50;;;3.75;;
8993;SDS011;4532;50.886;4.700;2023-10-08T02:21:21;5.00;;;3.08;;
8993;SDS011;4532;50.886;4.700;2023-10-08T02:23:50;6.07;;;3.38;;
8993;SDS011;4532;50.886;4.700;2023-10-08T02:26:19;7.85;;;3.65;;
8993;SDS011;4532;50.886;4.700;2023-10-08T02:28:46;5.72;;;3.25;;
8993;SDS011;4532;50.886;4.700;2023-10-08T02:31:15;5.63;;;2.92;;
8993;SDS011;4532;50.886;4.700;2023-10-08T02:33:47;7.90;;;3.17;;
8993;SDS011;4532;50.886;4.700;2023-10-08T02:36:15;5.45;;;3.30;;
8993;SDS011;4532;50.886;4.700;2023-10-08T02:38:42;6.57;;;3.42;;
8993;SDS011;4532;50.886;4.700;2023-10-08T02:41:10;5.97;;;3.45;;
8993;SDS011;4532;50.886;4.700;2023-10-08T02:43:43;7.13;;;3.47;;
8993;SDS011;4532;50.886;4.700;2023-10-08T02:46:11;8.52;;;3.60;;
8993;SDS011;4532;50.886;4.700;2023-10-08T02:48:44;6.90;;;3.65;;
8993;SDS011;4532;50.886;4.700;2023-10-08T02:51:16;5.30;;;3.00;;
8993;SDS011;4532;50.886;4.700;2023-10-08T02:53:49;7.07;;;3.20;;
8993;SDS011;4532;50.886;4.700;2023-10-08T02:56:19;7.07;;;3.47;;
8993;SDS011;4532;50.886;4.700;2023-10-08T02:58:51;7.15;;;3.03;;
8993;SDS011;4532;50.886;4.700;2023-10-08T03:01:21;7.07;;;4.00;;
8993;SDS011;4532;50.886;4.700;2023-10-08T03:03:48;7.45;;;3.50;;
8993;SDS011;4532;50.886;4.700;2023-10-08T03:06:18;6.40;;;3.70;;
8993;SDS011;4532;50.886;4.700;2023-10-08T03:08:50;7.75;;;4.00;;
8993;SDS011;4532;50.886;4.700;2023-10-08T03:11:20;7.20;;;3.78;;
8993;SDS011;4532;50.886;4.700;2023-10-08T03:13:52;6.80;;;3.15;;
8993;SDS011;4532;50.886;4.700;2023-10-08T03:16:25;5.90;;;3.40;;
8993;SDS011;4532;50.886;4.700;2023-10-08T03:19:01;4.47;;;3.50;;
8993;SDS011;4532;50.886;4.700;2023-10-08T03:21:29;5.78;;;3.35;;
8993;SDS011;4532;50.886;4.700;2023-10-08T03:24:08;9.43;;;3.60;;
8993;SDS011;4532;50.886;4.700;2023-10-08T03:26:54;7.95;;;3.42;;
8993;SDS011;4532;50.886;4.700;2023-10-08T03:29:35;5.38;;;3.38;;
8993;SDS011;4532;50.886;4.700;2023-10-08T03:32:08;7.50;;;3.60;;
8993;SDS011;4532;50.886;4.700;2023-10-08T03:34:40;7.00;;;3.72;;
8993;SDS011;4532;50.886;4.700;2023-10-08T03:37:14;4.97;;;3.20;;
8993;SDS011;4532;50.886;4.700;2023-10-08T03:39:56;6.93;;;3.55;;
8993;SDS011;4532;50.886;4.700;2023-10-08T03:42:48;9.27;;;3.83;;
8993;SDS011;4532;50.886;4.700;2023-10-08T03:45:18;9.43;;;3.58;;
8993;SDS011;4532;50.886;4.700;2023-10-08T03:48:04;5.78;;;3.58;;
8993;SDS011;4532;50.886;4.700;2023-10-08T03:50:39;7.10;;;3.67;;
8993;SDS011;4532;50.886;4.700;2023-10-08T03:53:10;7.72;;;3.58;;
8993;SDS011;4532;50.886;4.700;2023-10-08T03:55:42;5.22;;;3.67;;
8993;SDS011;4532;50.886;4.700;2023-10-08T03:58:09;5.97;;;3.53;;
8993;SDS011;4532;50.886;4.700;2023-10-08T04:00:43;8.90;;;4.22;;
8993;SDS011;4532;50.886;4.700;2023-10-08T04:03:14;7.13;;;3.75;;
8993;SDS011;4532;50.886;4.700;2023-10-08T04:05:50;6.55;;;3.70;;
8993;SDS011;4532;50.886;4.700;2023-10-08T04:08:43;7.90;;;3.67;;
8993;SDS011;4532;50.886;4.700;2023-10-08T04:11:21;7.20;;;4.07;;
8993;SDS011;4532;50.886;4.700;2023-10-08T04:13:57;8.20;;;3.95;;
8993;SDS011;4532;50.886;4.700;2023-10-08T04:16:29;5.80;;;3.78;;
8993;SDS011;4532;50.886;4.700;2023-10-08T04:18:56;7.47;;;3.70;;
8993;SDS011;4532;50.886;4.700;2023-10-08T04:21:30;7.65;;;4.10;;
8993;SDS011;4532;50.886;4.700;2023-10-08T04:24:00;5.80;;;3.53;;
8993;SDS011;4532;50.886;4.700;2023-10-08T04:26:30;6.22;;;3.47;;
8993;SDS011;4532;50.886;4.700;2023-10-08T04:29:00;7.93;;;3.47;;
8993;SDS011;4532;50.886;4.700;2023-10-08T04:31:36;7.03;;;3.78;;
8993;SDS011;4532;50.886;4.700;2023-10-08T04:34:04;5.90;;;3.58;;
8993;SDS011;4532;50.886;4.700;2023-10-08T04:36:42;7.30;;;3.67;;
8993;SDS011;4532;50.886;4.700;2023-10-08T04:39:15;9.50;;;3.67;;
8993;SDS011;4532;50.886;4.700;2023-10-08T04:41:42;8.43;;;3.80;;
8993;SDS011;4532;50.886;4.700;2023-10-08T04:44:09;9.57;;;4.00;;
8993;SDS011;4532;50.886;4.700;2023-10-08T04:46:43;7.88;;;3.83;;
8993;SDS011;4532;50.886;4.700;2023-10-08T04:49:16;8.63;;;3.80;;
8993;SDS011;4532;50.886;4.700;2023-10-08T04:52:04;8.65;;;3.85;;
8993;SDS011;4532;50.886;4.700;2023-10-08T04:54:41;7.32;;;4.20;;
8993;SDS011;4532;50.886;4.700;2023-10-08T04:57:18;7.07;;;4.00;;
8993;SDS011;4532;50.886;4.700;2023-10-08T04:59:52;6.20;;;3.50;;
8993;SDS011;4532;50.886;4.700;2023-10-08T05:02:24;7.45;;;3.72;;
8993;SDS011;4532;50.886;4.700;2023-10-08T05:05:15;9.45;;;4.40;;
8993;SDS011;4532;50.886;4.700;2023-10-08T05:07:46;7.88;;;4.18;;
8993;SDS011;4532;50.886;4.700;2023-10-08T05:10:13;6.38;;;4.13;;
8993;SDS011;4532;50.886;4.700;2023-10-08T05:12:53;7.18;;;4.57;;
8993;SDS011;4532;50.886;4.700;2023-10-08T05:15:32;11.27;;;4.30;;
8993;SDS011;4532;50.886;4.700;2023-10-08T05:18:13;6.82;;;3.88;;
8993;SDS011;4532;50.886;4.700;2023-10-08T05:20:51;6.40;;;4.00;;
8993;SDS011;4532;50.886;4.700;2023-10-08T05:23:18;6.40;;;4.17;;
8993;SDS011;4532;50.886;4.700;2023-10-08T05:26:09;7.43;;;4.03;;
8993;SDS011;4532;50.886;4.700;2023-10-08T05:28:49;6.50;;;4.10;;
8993;SDS011;4532;50.886;4.700;2023-10-08T05:31:51;8.98;;;4.82;;
8993;SDS011;4532;50.886;4.700;2023-10-08T05:34:40;6.00;;;3.58;;
8993;SDS011;4532;50.886;4.700;2023-10-08T05:37:22;6.80;;;3.67;;
8993;SDS011;4532;50.886;4.700;2023-10-08T05:40:06;7.57;;;4.22;;
8993;SDS011;4532;50.886;4.700;2023-10-08T05:43:00;7.22;;;4.13;;
8993;SDS011;4532;50.886;4.700;2023-10-08T05:45:40;8.10;;;4.18;;
8993;SDS011;4532;50.886;4.700;2023-10-08T05:48:21;7.90;;;4.47;;
8993;SDS011;4532;50.886;4.700;2023-10-08T05:51:03;7.68;;;4.18;;
8993;SDS011;4532;50.886;4.700;2023-10-08T05:53:40;9.93;;;4.07;;
8993;SDS011;4532;50.886;4.700;2023-10-08T05:56:18;9.50;;;4.22;;
8993;SDS011;4532;50.886;4.700;2023-10-08T05:58:56;6.20;;;4.18;;
8993;SDS011;4532;50.886;4.700;2023-10-08T06:01:44;9.90;;;4.22;;
8993;SDS011;4532;50.886;4.700;2023-10-08T06:04:13;9.10;;;4.45;;
8993;SDS011;4532;50.886;4.700;2023-10-08T06:07:18;8.20;;;4.00;;
8993;SDS011;4532;50.886;4.700;2023-10-08T06:09:59;8.15;;;3.92;;
8993;SDS011;4532;50.886;4.700;2023-10-08T06:12:42;8.05;;;4.13;;
8993;SDS011;4532;50.886;4.700;2023-10-08T06:15:16;5.95;;;3.80;;
8993;SDS011;4532;50.886;4.700;2023-10-08T06:17:54;5.47;;;3.85;;
8993;SDS011;4532;50.886;4.700;2023-10-08T06:20:33;7.60;;;3.60;;
8993;SDS011;4532;50.886;4.700;2023-10-08T06:23:06;7.18;;;4.30;;
8993;SDS011;4532;50.886;4.700;2023-10-08T06:25:39;9.00;;;4.22;;
8993;SDS011;4532;50.886;4.700;2023-10-08T06:28:14;6.32;;;4.30;;
8993;SDS011;4532;50.886;4.700;2023-10-08T06:30:46;7.07;;;5.10;;
8993;SDS011;4532;50.886;4.700;2023-10-08T06:33:15;5.65;;;4.13;;
8993;SDS011;4532;50.886;4.700;2023-10-08T06:35:45;7.32;;;3.85;;
8993;SDS011;4532;50.886;4.700;2023-10-08T06:38:33;8.10;;;4.07;;
8993;SDS011;4532;50.886;4.700;2023-10-08T06:41:04;7.90;;;4.10;;
8993;SDS011;4532;50.886;4.700;2023-10-08T06:43:50;8.80;;;4.20;;
8993;SDS011;4532;50.886;4.700;2023-10-08T06:46:29;5.40;;;4.63;;
8993;SDS011;4532;50.886;4.700;2023-10-08T06:49:07;7.22;;;3.95;;
8993;SDS011;4532;50.886;4.700;2023-10-08T06:51:39;10.52;;;4.03;;
8993;SDS011;4532;50.886;4.700;2023-10-08T06:54:13;6.20;;;4.07;;
8993;SDS011;4532;50.886;4.700;2023-10-08T06:56:46;7.15;;;4.20;;
8993;SDS011;4532;50.886;4.700;2023-10-08T06:59:19;9.70;;;4.25;;
8993;SDS011;4532;50.886;4.700;2023-10-08T07:01:51;6.93;;;4.38;;
8993;SDS011;4532;50.886;4.700;2023-10-08T07:04:18;9.90;;;4.47;;
8993;SDS011;4532;50.886;4.700;2023-10-08T07:06:49;6.25;;;4.35;;
8993;SDS011;4532;50.886;4.700;2023-10-08T07:09:20;5.20;;;3.85;;
8993;SDS011;4532;50.886;4.700;2023-10-08T07:11:53;9.15;;;4.05;;
8993;SDS011;4532;50.886;4.700;2023-10-08T07:14:25;7.25;;;4.07;;
8993;SDS011;4532;50.886;4.700;2023-10-08T07:16:58;11.50;;;4.22;;
8993;SDS011;4532;50.886;4.700;2023-10-08T07:19:28;8.77;;;4.07;;
8993;SDS011;4532;50.886;4.700;2023-10-08T07:22:04;7.93;;;4.32;;
8993;SDS011;4532;50.886;4.700;2023-10-08T07:24:35;6.38;;;4.03;;
8993;SDS011;4532;50.886;4.700;2023-10-08T07:27:05;9.70;;;4.53;;
8993;SDS011;4532;50.886;4.700;2023-10-08T07:29:35;10.00;;;4.85;;
8993;SDS011;4532;50.886;4.700;2023-10-08T07:32:05;7.75;;;4.18;;
8993;SDS011;4532;50.886;4.700;2023-10-08T07:34:38;7.85;;;4.40;;
8993;SDS011;4532;50.886;4.700;2023-10-08T07:37:05;7.68;;;4.30;;
8993;SDS011;4532;50.886;4.700;2023-10-08T07:39:35;7.75;;;4.85;;
8993;SDS011;4532;50.886;4.700;2023-10-08T07:42:03;7.20;;;4.07;;
8993;SDS011;4532;50.886;4.700;2023-10-08T07:44:37;8.25;;;4.15;;
8993;SDS011;4532;50.886;4.700;2023-10-08T07:47:08;7.45;;;4.38;;
8993;SDS011;4532;50.886;4.700;2023-10-08T07:49:40;6.53;;;3.92;;
8993;SDS011;4532;50.886;4.700;2023-10-08T07:52:14;8.60;;;4.57;;
8993;SDS011;4532;50.886;4.700;2023-10-08T07:54:48;7.55;;;4.20;;
8993;SDS011;4532;50.886;4.700;2023-10-08T07:57:17;8.60;;;4.40;;
8993;SDS011;4532;50.886;4.700;2023-10-08T07:59:57;8.82;;;4.10;;
8993;SDS011;4532;50.886;4.700;2023-10-08T08:02:48;9.20;;;4.25;;
8993;SDS011;4532;50.886;4.700;2023-10-08T08:05:22;11.80;;;4.75;;
8993;SDS011;4532;50.886;4.700;2023-10-08T08:07:52;6.82;;;4.30;;
8993;SDS011;4532;50.886;4.700;2023-10-08T08:10:23;9.50;;;4.13;;
8993;SDS011;4532;50.886;4.700;2023-10-08T08:12:53;7.93;;;4.28;;
8993;SDS011;4532;50.886;4.700;2023-10-08T08:15:23;7.20;;;4.55;;
8993;SDS011;4532;50.886;4.700;2023-10-08T08:17:53;11.30;;;4.45;;
8993;SDS011;4532;50.886;4.700;2023-10-08T08:20:21;9.13;;;4.43;;
8993;SDS011;4532;50.886;4.700;2023-10-08T08:22:49;10.82;;;4.07;;
8993;SDS011;4532;50.886;4.700;2023-10-08T08:25:24;9.90;;;4.70;;
8993;SDS011;4532;50.886;4.700;2023-10-08T08:28:01;8.77;;;3.97;;
8993;SDS011;4532;50.886;4.700;2023-10-08T08:30:32;8.07;;;5.13;;
8993;SDS011;4532;50.886;4.700;2023-10-08T08:33:03;11.45;;;4.30;;
8993;SDS011;4532;50.886;4.700;2023-10-08T08:35:37;7.75;;;4.68;;
8993;SDS011;4532;50.886;4.700;2023-10-08T08:38:05;9.25;;;4.50;;
8993;SDS011;4532;50.886;4.700;2023-10-08T08:40:36;11.82;;;5.22;;
8993;SDS011;4532;50.886;4.700;2023-10-08T08:43:06;9.48;;;4.63;;
8993;SDS011;4532;50.886;4.700;2023-10-08T08:45:36;11.32;;;4.55;;
8993;SDS011;4532;50.886;4.700;2023-10-08T08:48:07;10.32;;;4.60;;
8993;SDS011;4532;50.886;4.700;2023-10-08T08:50:34;7.53;;;4.43;;
8993;SDS011;4532;50.886;4.700;2023-10-08T08:53:07;9.88;;;4.85;;
8993;SDS011;4532;50.886;4.700;2023-10-08T08:55:38;6.85;;;4.63;;
8993;SDS011;4532;50.886;4.700;2023-10-08T08:58:12;7.60;;;4.38;;
8993;SDS011;4532;50.886;4.700;2023-10-08T09:00:40;7.90;;;4.47;;
8993;SDS011;4532;50.886;4.700;2023-10-08T09:03:07;9.43;;;4.78;;
8993;SDS011;4532;50.886;4.700;2023-10-08T09:05:40;8.75;;;4.95;;
8993;SDS011;4532;50.886;4.700;2023-10-08T09:08:09;12.13;;;4.85;;
8993;SDS011;4532;50.886;4.700;2023-10-08T09:10:37;9.60;;;4.13;;
8993;SDS011;4532;50.886;4.700;2023-10-08T09:13:23;16.42;;;4.78;;
8993;SDS011;4532;50.886;4.700;2023-10-08T09:15:51;11.60;;;4.32;;
8993;SDS011;4532;50.886;4.700;2023-10-08T09:18:26;8.43;;;4.75;;
8993;SDS011;4532;50.886;4.700;2023-10-08T09:20:54;8.48;;;4.65;;
8993;SDS011;4532;50.886;4.700;2023-10-08T09:23:22;9.38;;;4.78;;
8993;SDS011;4532;50.886;4.700;2023-10-08T09:25:51;8.05;;;4.80;;
8993;SDS011;4532;50.886;4.700;2023-10-08T09:28:30;7.90;;;4.78;;
8993;SDS011;4532;50.886;4.700;2023-10-08T09:31:00;9.48;;;4.18;;
8993;SDS011;4532;50.886;4.700;2023-10-08T09:33:32;7.85;;;4.80;;
8993;SDS011;4532;50.886;4.700;2023-10-08T09:35:59;9.93;;;4.57;;
8993;SDS011;4532;50.886;4.700;2023-10-08T09:38:34;8.20;;;4.68;;
8993;SDS011;4532;50.886;4.700;2023-10-08T09:41:01;8.50;;;4.90;;
8993;SDS011;4532;50.886;4.700;2023-10-08T09:43:31;8.82;;;5.30;;
8993;SDS011;4532;50.886;4.700;2023-10-08T09:46:19;8.95;;;4.75;;
8993;SDS011;4532;50.886;4.700;2023-10-08T09:48:50;8.90;;;4.78;;
8993;SDS011;4532;50.886;4.700;2023-10-08T09:51:24;7.75;;;4.60;;
8993;SDS011;4532;50.886;4.700;2023-10-08T09:56:31;12.57;;;5.32;;
8993;SDS011;4532;50.886;4.700;2023-10-08T09:59:03;13.25;;;5.55;;
8993;SDS011;4532;50.886;4.700;2023-10-08T10:01:31;11.70;;;5.65;;
8993;SDS011;4532;50.886;4.700;2023-10-08T10:03:59;9.90;;;5.28;;
8993;SDS011;4532;50.886;4.700;2023-10-08T10:06:27;12.38;;;4.95;;
8993;SDS011;4532;50.886;4.700;2023-10-08T10:08:58;10.50;;;4.88;;
8993;SDS011;4532;50.886;4.700;2023-10-08T10:11:30;9.40;;;5.00;;
8993;SDS011;4532;50.886;4.700;2023-10-08T10:13:58;9.10;;;4.85;;
8993;SDS011;4532;50.886;4.700;2023-10-08T10:16:27;8.40;;;4.78;;
8993;SDS011;4532;50.886;4.700;2023-10-08T10:18:55;11.73;;;5.57;;
8993;SDS011;4532;50.886;4.700;2023-10-08T10:21:29;9.65;;;5.88;;
8993;SDS011;4532;50.886;4.700;2023-10-08T10:24:00;12.43;;;5.47;;
8993;SDS011;4532;50.886;4.700;2023-10-08T10:26:34;14.07;;;6.05;;
8993;SDS011;4532;50.886;4.700;2023-10-08T10:31:52;14.70;;;6.45;;
8993;SDS011;4532;50.886;4.700;2023-10-08T10:34:21;11.73;;;6.25;;
8993;SDS011;4532;50.886;4.700;2023-10-08T10:37:03;17.88;;;6.53;;
8993;SDS011;4532;50.886;4.700;2023-10-08T10:42:26;17.52;;;6.78;;
8993;SDS011;4532;50.886;4.700;2023-10-08T10:44:58;14.48;;;6.53;;
8993;SDS011;4532;50.886;4.700;2023-10-08T10:47:35;16.60;;;6.40;;
8993;SDS011;4532;50.886;4.700;2023-10-08T10:50:15;12.15;;;6.13;;
8993;SDS011;4532;50.886;4.700;2023-10-08T10:52:58;18.02;;;6.75;;
8993;SDS011;4532;50.886;4.700;2023-10-08T10:55:37;18.48;;;6.47;;
8993;SDS011;4532;50.886;4.700;2023-10-08T10:58:06;11.63;;;5.90;;
8993;SDS011;4532;50.886;4.700;2023-10-08T11:00:41;14.55;;;6.03;;
8993;SDS011;4532;50.886;4.700;2023-10-08T11:03:09;12.15;;;6.20;;
8993;SDS011;4532;50.886;4.700;2023-10-08T11:05:56;12.13;;;5.75;;
8993;SDS011;4532;50.886;4.700;2023-10-08T11:08:33;11.18;;;5.75;;
8993;SDS011;4532;50.886;4.700;2023-10-08T11:11:05;12.05;;;5.65;;
8993;SDS011;4532;50.886;4.700;2023-10-08T11:13:34;11.30;;;5.65;;
8993;SDS011;4532;50.886;4.700;2023-10-08T11:16:08;11.00;;;6.15;;
8993;SDS011;4532;50.886;4.700;2023-10-08T11:18:41;12.23;;;5.70;;
8993;SDS011;4532;50.886;4.700;2023-10-08T11:21:11;11.43;;;5.47;;
8993;SDS011;4532;50.886;4.700;2023-10-08T11:23:47;17.77;;;5.45;;
8993;SDS011;4532;50.886;4.700;2023-10-08T11:26:26;10.15;;;5.45;;
8993;SDS011;4532;50.886;4.700;2023-10-08T11:29:08;13.18;;;5.60;;
8993;SDS011;4532;50.886;4.700;2023-10-08T11:31:44;11.10;;;4.88;;
8993;SDS011;4532;50.886;4.700;2023-10-08T11:34:16;16.23;;;5.97;;
8993;SDS011;4532;50.886;4.700;2023-10-08T11:36:53;10.77;;;5.68;;
8993;SDS011;4532;50.886;4.700;2023-10-08T11:39:22;9.00;;;4.70;;
8993;SDS011;4532;50.886;4.700;2023-10-08T11:42:02;13.25;;;6.78;;
8993;SDS011;4532;50.886;4.700;2023-10-08T11:44:49;12.20;;;5.70;;
8993;SDS011;4532;50.886;4.700;2023-10-08T11:47:19;11.45;;;5.40;;
8993;SDS011;4532;50.886;4.700;2023-10-08T11:49:49;10.90;;;5.63;;
8993;SDS011;4532;50.886;4.700;2023-10-08T11:52:36;13.35;;;5.88;;
8993;SDS011;4532;50.886;4.700;2023-10-08T11:55:08;9.65;;;5.15;;
8993;SDS011;4532;50.886;4.700;2023-10-08T11:57:36;13.43;;;5.57;;
8993;SDS011;4532;50.886;4.700;2023-10-08T12:00:13;10.57;;;5.28;;
8993;SDS011;4532;50.886;4.700;2023-10-08T12:02:58;11.65;;;5.78;;
8993;SDS011;4532;50.886;4.700;2023-10-08T12:05:29;10.20;;;5.10;;
8993;SDS011;4532;50.886;4.700;2023-10-08T12:07:59;13.20;;;5.65;;
8993;SDS011;4532;50.886;4.700;2023-10-08T12:10:29;11.10;;;5.78;;
8993;SDS011;4532;50.886;4.700;2023-10-08T12:13:04;10.73;;;5.63;;
8993;SDS011;4532;50.886;4.700;2023-10-08T12:15:34;14.73;;;6.10;;
8993;SDS011;4532;50.886;4.700;2023-10-08T12:18:05;10.40;;;5.25;;
8993;SDS011;4532;50.886;4.700;2023-10-08T12:20:38;12.50;;;5.72;;
8993;SDS011;4532;50.886;4.700;2023-10-08T12:23:05;10.63;;;5.45;;
8993;SDS011;4532;50.886;4.700;2023-10-08T12:25:34;13.32;;;5.25;;
8993;SDS011;4532;50.886;4.700;2023-10-08T12:28:06;9.27;;;5.07;;
8993;SDS011;4532;50.886;4.700;2023-10-08T12:30:33;14.10;;;6.03;;
8993;SDS011;4532;50.886;4.700;2023-10-08T12:33:10;15.07;;;6.40;;
8993;SDS011;4532;50.886;4.700;2023-10-08T12:35:43;14.02;;;5.95;;
8993;SDS011;4532;50.886;4.700;2023-10-08T12:38:11;9.93;;;5.75;;
8993;SDS011;4532;50.886;4.700;2023-10-08T12:40:42;10.63;;;5.20;;
8993;SDS011;4532;50.886;4.700;2023-10-08T12:43:23;10.57;;;6.00;;
8993;SDS011;4532;50.886;4.700;2023-10-08T12:45:54;13.35;;;5.82;;
8993;SDS011;4532;50.886;4.700;2023-10-08T12:48:26;11.57;;;6.05;;
8993;SDS011;4532;50.886;4.700;2023-10-08T12:50:56;9.35;;;5.25;;
8993;SDS011;4532;50.886;4.700;2023-10-08T12:53:28;11.13;;;5.93;;
8993;SDS011;4532;50.886;4.700;2023-10-08T12:56:06;10.95;;;5.50;;
8993;SDS011;4532;50.886;4.700;2023-10-08T12:58:44;13.30;;;5.90;;
8993;SDS011;4532;50.886;4.700;2023-10-08T13:01:15;12.45;;;5.53;;
8993;SDS011;4532;50.886;4.700;2023-10-08T13:03:46;13.98;;;5.80;;
8993;SDS011;4532;50.886;4.700;2023-10-08T13:06:17;11.40;;;5.28;;
8993;SDS011;4532;50.886;4.700;2023-10-08T13:08:49;13.35;;;5.70;;
8993;SDS011;4532;50.886;4.700;2023-10-08T13:11:20;12.30;;;5.55;;
8993;SDS011;4532;50.886;4.700;2023-10-08T13:13:51;9.75;;;5.50;;
8993;SDS011;4532;50.886;4.700;2023-10-08T13:16:20;8.35;;;5.28;;
8993;SDS011;4532;50.886;4.700;2023-10-08T13:18:50;12.65;;;5.95;;
8993;SDS011;4532;50.886;4.700;2023-10-08T13:21:18;12.27;;;5.93;;
8993;SDS011;4532;50.886;4.700;2023-10-08T13:23:48;13.80;;;6.13;;
8993;SDS011;4532;50.886;4.700;2023-10-08T13:26:18;11.77;;;5.65;;
8993;SDS011;4532;50.886;4.700;2023-10-08T13:28:49;7.88;;;4.55;;
8993;SDS011;4532;50.886;4.700;2023-10-08T13:31:19;9.40;;;5.47;;
8993;SDS011;4532;50.886;4.700;2023-10-08T13:33:46;12.77;;;5.85;;
8993;SDS011;4532;50.886;4.700;2023-10-08T13:36:18;11.48;;;6.03;;
8993;SDS011;4532;50.886;4.700;2023-10-08T13:38:48;10.90;;;5.68;;
8993;SDS011;4532;50.886;4.700;2023-10-08T13:41:15;11.82;;;5.25;;
8993;SDS011;4532;50.886;4.700;2023-10-08T13:43:48;11.55;;;5.95;;
8993;SDS011;4532;50.886;4.700;2023-10-08T13:46:18;13.32;;;5.78;;
8993;SDS011;4532;50.886;4.700;2023-10-08T13:48:49;11.70;;;5.70;;
8993;SDS011;4532;50.886;4.700;2023-10-08T13:51:17;12.48;;;6.30;;
8993;SDS011;4532;50.886;4.700;2023-10-08T13:53:53;14.07;;;6.15;;
8993;SDS011;4532;50.886;4.700;2023-10-08T13:56:36;10.35;;;5.97;;
8993;SDS011;4532;50.886;4.700;2023-10-08T13:59:04;8.95;;;5.43;;
8993;SDS011;4532;50.886;4.700;2023-10-08T14:01:43;10.82;;;6.03;;
8993;SDS011;4532;50.886;4.700;2023-10-08T14:04:18;9.23;;;5.53;;
8993;SDS011;4532;50.886;4.700;2023-10-08T14:06:56;10.05;;;6.18;;
8993;SDS011;4532;50.886;4.700;2023-10-08T14:09:25;14.35;;;6.22;;
8993;SDS011;4532;50.886;4.700;2023-10-08T14:11:59;10.75;;;5.85;;
8993;SDS011;4532;50.886;4.700;2023-10-08T14:14:27;14.13;;;6.32;;
8993;SDS011;4532;50.886;4.700;2023-10-08T14:17:00;12.20;;;6.03;;
8993;SDS011;4532;50.886;4.700;2023-10-08T14:19:35;11.48;;;6.30;;
8993;SDS011;4532;50.886;4.700;2023-10-08T14:22:26;11.55;;;6.00;;
8993;SDS011;4532;50.886;4.700;2023-10-08T14:24:53;10.45;;;5.97;;
8993;SDS011;4532;50.886;4.700;2023-10-08T14:27:29;13.52;;;6.45;;
8993;SDS011;4532;50.886;4.700;2023-10-08T14:30:00;13.63;;;6.80;;
8993;SDS011;4532;50.886;4.700;2023-10-08T14:32:33;12.15;;;6.00;;
8993;SDS011;4532;50.886;4.700;2023-10-08T14:35:00;10.90;;;6.03;;
8993;SDS011;4532;50.886;4.700;2023-10-08T14:37:46;10.25;;;6.35;;
8993;SDS011;4532;50.886;4.700;2023-10-08T14:40:32;12.43;;;6.20;;
8993;SDS011;4532;50.886;4.700;2023-10-08T14:43:17;11.18;;;6.57;;
8993;SDS011;4532;50.886;4.700;2023-10-08T14:45:49;12.68;;;6.97;;
8993;SDS011;4532;50.886;4.700;2023-10-08T14:48:19;12.70;;;7.05;;
8993;SDS011;4532;50.886;4.700;2023-10-08T14:50:47;17.98;;;8.85;;
8993;SDS011;4532;50.886;4.700;2023-10-08T14:53:18;9.98;;;6.25;;
8993;SDS011;4532;50.886;4.700;2023-10-08T14:55:45;10.55;;;6.32;;
8993;SDS011;4532;50.886;4.700;2023-10-08T14:58:13;10.38;;;5.80;;
8993;SDS011;4532;50.886;4.700;2023-10-08T15:00:45;11.70;;;5.70;;
8993;SDS011;4532;50.886;4.700;2023-10-08T15:03:15;9.65;;;6.20;;
8993;SDS011;4532;50.886;4.700;2023-10-08T15:05:43;10.60;;;6.30;;
8993;SDS011;4532;50.886;4.700;2023-10-08T15:08:11;12.07;;;5.88;;
8993;SDS011;4532;50.886;4.700;2023-10-08T15:10:43;12.23;;;6.72;;
8993;SDS011;4532;50.886;4.700;2023-10-08T15:13:13;10.98;;;6.22;;
8993;SDS011;4532;50.886;4.700;2023-10-08T15:15:42;11.07;;;5.93;;
8993;SDS011;4532;50.886;4.700;2023-10-08T15:18:12;13.02;;;5.97;;
8993;SDS011;4532;50.886;4.700;2023-10-08T15:20:43;11.85;;;6.13;;
8993;SDS011;4532;50.886;4.700;2023-10-08T15:23:11;10.88;;;6.05;;
8993;SDS011;4532;50.886;4.700;2023-10-08T15:25:41;11.85;;;5.85;;
8993;SDS011;4532;50.886;4.700;2023-10-08T15:28:08;10.65;;;6.15;;
8993;SDS011;4532;50.886;4.700;2023-10-08T15:30:38;11.07;;;6.07;;
8993;SDS011;4532;50.886;4.700;2023-10-08T15:33:07;8.85;;;5.53;;
8993;SDS011;4532;50.886;4.700;2023-10-08T15:35:35;9.63;;;6.30;;
8993;SDS011;4532;50.886;4.700;2023-10-08T15:38:02;10.65;;;5.93;;
8993;SDS011;4532;50.886;4.700;2023-10-08T15:40:31;11.88;;;6.15;;
8993;SDS011;4532;50.886;4.700;2023-10-08T15:43:00;11.48;;;6.15;;
8993;SDS011;4532;50.886;4.700;2023-10-08T15:45:29;10.30;;;5.65;;
8993;SDS011;4532;50.886;4.700;2023-10-08T15:48:01;10.32;;;5.85;;
8993;SDS011;4532;50.886;4.700;2023-10-08T15:50:31;9.00;;;5.75;;
8993;SDS011;4532;50.886;4.700;2023-10-08T15:52:59;10.07;;;5.80;;
8993;SDS011;4532;50.886;4.700;2023-10-08T15:55:29;13.70;;;5.93;;